Disclaimer

Please do not use the information listed here in-flight or in-navigation, as they are not provided to us by the airports but are provided by volunteers, so they might be outdated.

Search


Regions


Airport information page

Radio informations:
Tower (TWR) - 119.65 MHz
Ground (GND) - 121.975 MHz
Automatic Terminal Information Service (ATIS) - 136.35 MHz
LANGEN RADAR - 125.6 MHz
LANGEN INFO - 123.525 MHz

Airport informations:
Latitude: 49° 56' 55.22" N
Longitude: 007° 15' 50.01" E
Elevation: 1649 feet - 503 meters
Operating hours: Remarks
Operating agency: Civil government, landing fees and diplomatic clearance may be required
Timezone: UTC+1(+2DT) - Last Sunday in March to last Sunday in October
Fuel: Jet A1, without icing nhibitor.

100/130 MIL Spec, low lead, aviation gasoline (BLUE)

Runway information:
03/21 - 12467 x 148 feet< - >3800 x 45 meters

Recent METARs:
EDFH 210320Z 12010KT 070V150 9999 SCT005 M00/M01 Q1009
EDFH 210350Z 11008KT 070V140 9999 BKN004 M01/M01 Q1009
EDFH 210420Z 13011KT 8000 BKN004 M01/M01 Q1010

Airport on the map: